createdAt,value
2018-06-19T00:01:16.627Z,18.7
2018-06-19T00:06:13.813Z,19.3
2018-06-19T00:11:11.272Z,19.2
2018-06-19T00:16:08.515Z,19
2018-06-19T00:21:05.755Z,19.2
2018-06-19T00:26:02.849Z,19.2
2018-06-19T00:31:00.181Z,19.2
2018-06-19T00:35:57.175Z,18.7
2018-06-19T00:40:54.328Z,18.7
2018-06-19T00:45:51.645Z,18.6
2018-06-19T00:50:48.871Z,18.6
2018-06-19T00:55:46.205Z,19.2
2018-06-19T01:00:43.400Z,19.2
2018-06-19T01:05:41.127Z,19.1
2018-06-19T01:10:38.497Z,19.1
2018-06-19T01:15:35.720Z,18.9
2018-06-19T01:20:33.053Z,19.1
2018-06-19T01:25:30.194Z,19.1
2018-06-19T01:30:27.251Z,18.9
2018-06-19T01:35:24.233Z,18.5
2018-06-19T01:40:21.263Z,19.1
2018-06-19T01:45:18.673Z,19.1
2018-06-19T01:50:15.878Z,19.1
2018-06-19T01:55:12.986Z,18.5
2018-06-19T02:00:10.286Z,18.8
2018-06-19T02:05:07.241Z,18.4
2018-06-19T02:10:04.487Z,18.4
2018-06-19T02:15:01.844Z,18.4
2018-06-19T02:19:58.928Z,18.9
2018-06-19T02:24:56.162Z,18.3
2018-06-19T02:29:53.045Z,18.9
2018-06-19T02:34:50.483Z,18.6
2018-06-19T02:39:47.790Z,18.3
2018-06-19T02:44:44.744Z,18.8
2018-06-19T02:49:42.644Z,18.3
2018-06-19T02:54:39.719Z,18.8
2018-06-19T02:59:36.808Z,18.8
2018-06-19T03:04:33.940Z,18.8
2018-06-19T03:09:31.109Z,18.8
2018-06-19T03:14:28.405Z,18.3
2018-06-19T03:19:25.435Z,18.2
2018-06-19T03:24:22.660Z,18.8
2018-06-19T03:29:19.891Z,18.7
2018-06-19T03:34:17.190Z,18.7
2018-06-19T03:39:14.284Z,18.7
2018-06-19T03:44:11.408Z,18.7
2018-06-19T03:49:08.514Z,18.1
2018-06-19T03:54:05.619Z,18.2
2018-06-19T03:59:02.824Z,18.8
2018-06-19T04:04:00.724Z,18.8
2018-06-19T04:08:58.631Z,18.3
2018-06-19T04:13:55.562Z,18.9
2018-06-19T04:18:52.581Z,18.1
2018-06-19T04:23:49.760Z,18.9
2018-06-19T04:28:47.105Z,18.4
2018-06-19T04:33:44.780Z,19
2018-06-19T04:38:41.799Z,19
2018-06-19T04:43:38.713Z,19
2018-06-19T04:48:35.758Z,18.5
2018-06-19T04:53:32.973Z,19.1
2018-06-19T04:58:29.813Z,19.1
2018-06-19T05:03:26.452Z,19.1
2018-06-19T05:08:22.806Z,19.1
2018-06-19T05:13:19.907Z,19.2
2018-06-19T05:18:16.706Z,18.7
2018-06-19T05:23:14.089Z,19.3
2018-06-19T05:28:11.169Z,16.9
2018-06-19T05:33:08.270Z,19.4
2018-06-19T05:38:05.220Z,19.4
2018-06-19T05:43:02.347Z,18.9
2018-06-19T05:47:59.726Z,19.5
2018-06-19T05:52:56.793Z,19.3
2018-06-19T05:57:53.946Z,19.1
2018-06-19T06:02:51.200Z,19.6
2018-06-19T06:07:48.874Z,19.6
2018-06-19T06:12:45.470Z,19.1
2018-06-19T06:17:47.334Z,19.7
2018-06-19T06:22:43.296Z,19.8
2018-06-19T06:27:40.257Z,19.8
2018-06-19T06:32:37.296Z,19.8
2018-06-19T06:37:34.708Z,19.3
2018-06-19T06:42:31.725Z,19.9
2018-06-19T06:47:28.663Z,20
2018-06-19T06:52:25.789Z,19.7
2018-06-19T06:57:22.921Z,20.1
2018-06-19T07:02:20.178Z,19.8
2018-06-19T07:07:17.101Z,19.8
2018-06-19T07:12:14.137Z,19.9
2018-06-19T07:17:11.325Z,20.4
2018-06-19T07:22:08.430Z,19.9
2018-06-19T07:27:06.305Z,20.5
2018-06-19T07:32:03.917Z,20
2018-06-19T07:37:00.793Z,20.6
2018-06-19T07:41:58.424Z,20.1
2018-06-19T07:46:55.417Z,20.7
2018-06-19T07:51:52.705Z,20.3
2018-06-19T07:56:49.671Z,20.9
2018-06-19T08:01:46.902Z,20.4
2018-06-19T08:06:44.124Z,20.5
2018-06-19T08:11:41.373Z,21.1
2018-06-19T08:16:38.806Z,20.7
2018-06-19T08:21:36.047Z,21.3
2018-06-19T08:26:33.490Z,20.9
2018-06-19T08:31:30.563Z,21.4
2018-06-19T08:36:27.989Z,21
2018-06-19T08:41:25.039Z,21.7
2018-06-19T08:46:22.307Z,21.8
2018-06-19T08:51:19.750Z,21.4
2018-06-19T08:56:16.958Z,22
2018-06-19T09:01:14.216Z,21.7
2018-06-19T09:06:11.270Z,22.4
2018-06-19T09:11:08.544Z,20.8
2018-06-19T09:16:05.883Z,22.5
2018-06-19T09:21:03.159Z,22.5
2018-06-19T09:26:00.788Z,22.5
2018-06-19T09:30:57.947Z,22.1
2018-06-19T09:35:55.009Z,22.6
2018-06-19T09:40:52.570Z,22.6
2018-06-19T09:45:50.910Z,22.6
2018-06-19T09:50:47.972Z,22.8
2018-06-19T09:55:44.801Z,22.9
2018-06-19T10:00:41.987Z,23.1
2018-06-19T10:05:39.672Z,22.7
2018-06-19T10:10:42.118Z,23.3
2018-06-19T10:15:38.048Z,22.9
2018-06-19T10:20:35.415Z,22.4
2018-06-19T10:25:32.618Z,23.4
2018-06-19T10:30:29.921Z,23.6
2018-06-19T10:35:27.603Z,23.7
2018-06-19T10:40:24.661Z,23.8
2018-06-19T10:45:22.448Z,23.4
2018-06-19T10:50:19.996Z,23
2018-06-19T10:55:17.400Z,23.7
2018-06-19T11:00:14.777Z,23.8
2018-06-19T11:05:12.131Z,24.4
2018-06-19T11:10:09.078Z,24.5
2018-06-19T11:15:06.631Z,24.7
2018-06-19T11:20:07.078Z,24.6
2018-06-19T11:25:03.196Z,24.4
2018-06-19T11:30:00.432Z,24.7
2018-06-19T11:34:57.678Z,24.8
2018-06-19T11:39:54.862Z,24.7
2018-06-19T11:44:52.727Z,25.1
2018-06-19T11:49:49.887Z,25.1
2018-06-19T11:54:47.135Z,25
2018-06-19T11:59:44.053Z,25.2
2018-06-19T12:04:41.307Z,25.5
2018-06-19T12:09:38.745Z,25.8
2018-06-19T12:14:36.241Z,26.1
2018-06-19T12:19:33.650Z,26.4
2018-06-19T12:24:30.929Z,26.6
2018-06-19T12:29:28.172Z,26.3
2018-06-19T12:34:25.522Z,27
2018-06-19T12:39:22.822Z,26.5
2018-06-19T12:44:20.048Z,26.7
2018-06-19T12:49:17.752Z,26.6
2018-06-19T12:54:15.440Z,26.8
2018-06-19T12:59:12.840Z,27.4
2018-06-19T13:04:09.963Z,27.5
2018-06-19T13:09:07.594Z,28.3
2018-06-19T13:14:05.846Z,29.2
2018-06-19T13:19:03.318Z,29.3
2018-06-19T13:24:01.568Z,29.6
2018-06-19T13:28:58.997Z,28.7
2018-06-19T13:33:56.423Z,28.8
2018-06-19T13:38:53.317Z,28
2018-06-19T13:43:50.331Z,27.7
2018-06-19T13:48:47.681Z,27.7
2018-06-19T13:53:45.084Z,28.1
2018-06-19T13:58:42.395Z,27.5
2018-06-19T14:03:39.633Z,27.9
2018-06-19T14:08:37.823Z,27.4
2018-06-19T14:13:34.945Z,27.3
2018-06-19T14:18:33.563Z,27.3
2018-06-19T14:23:30.657Z,26.9
2018-06-19T14:28:26.601Z,26.4
2018-06-19T14:33:24.706Z,26.4
2018-06-19T14:43:19.028Z,26.9
2018-06-19T14:48:16.306Z,26.5
2018-06-19T14:53:13.648Z,27
2018-06-19T14:58:10.680Z,26.5
2018-06-19T15:03:07.939Z,26.5
2018-06-19T15:08:05.287Z,26.6
2018-06-19T15:13:02.470Z,26.6
2018-06-19T15:17:59.753Z,27
2018-06-19T15:22:56.963Z,26.6
2018-06-19T15:27:54.543Z,26.6
2018-06-19T15:32:51.954Z,26.4
2018-06-19T15:37:49.213Z,26.2
2018-06-19T15:42:46.225Z,25.9
2018-06-19T15:47:43.420Z,25.7
2018-06-19T15:52:40.757Z,26.1
2018-06-19T15:57:37.750Z,26.2
2018-06-19T16:02:34.824Z,26
2018-06-19T16:07:32.014Z,25.7
2018-06-19T16:12:29.660Z,25.5
2018-06-19T16:17:26.759Z,26.4
2018-06-19T16:22:23.514Z,26.1
2018-06-19T16:27:20.465Z,25.4
2018-06-19T16:32:17.692Z,25.8
2018-06-19T16:37:15.002Z,25.5
2018-06-19T16:42:12.070Z,25.8
2018-06-19T16:47:09.044Z,25.2
2018-06-19T16:52:06.317Z,25.2
2018-06-19T16:57:03.866Z,25.6
2018-06-19T17:02:01.216Z,25
2018-06-19T17:06:58.669Z,25.4
2018-06-19T17:11:56.145Z,25.3
2018-06-19T17:16:53.274Z,24.7
2018-06-19T17:21:50.478Z,25.1
2018-06-19T17:26:47.590Z,24.8
2018-06-19T17:31:44.954Z,24.5
2018-06-19T17:36:42.497Z,24.9
2018-06-19T17:41:39.519Z,24.8
2018-06-19T17:46:36.752Z,24.7
2018-06-19T17:51:33.922Z,24.5
2018-06-19T17:56:31.162Z,24.1
2018-06-19T18:01:28.348Z,24.5
2018-06-19T18:06:25.335Z,24.3
2018-06-19T18:11:22.716Z,23.9
2018-06-19T18:16:19.899Z,24.3
2018-06-19T18:21:17.148Z,24.3
2018-06-19T18:26:14.421Z,24
2018-06-19T18:31:11.488Z,24.2
2018-06-19T18:36:08.359Z,24.2
2018-06-19T18:41:05.802Z,23.7
2018-06-19T18:46:03.374Z,24.1
2018-06-19T18:51:01.005Z,23.5
2018-06-19T18:55:58.084Z,23.4
2018-06-19T19:00:55.090Z,23.9
2018-06-19T19:05:52.485Z,23.4
2018-06-19T19:10:49.345Z,23.8
2018-06-19T19:15:46.725Z,23.2
2018-06-19T19:20:43.859Z,23.7
2018-06-19T19:25:41.134Z,23.7
2018-06-19T19:30:38.292Z,23.7
2018-06-19T19:35:35.245Z,23
2018-06-19T19:40:32.389Z,23.1
2018-06-19T19:45:29.591Z,23.6
2018-06-19T19:50:26.740Z,23.3
2018-06-19T19:55:23.694Z,23
2018-06-19T20:00:20.703Z,23.5
2018-06-19T20:05:17.823Z,23.4
2018-06-19T20:10:15.061Z,22.8
2018-06-19T20:15:12.890Z,23.3
2018-06-19T20:20:09.893Z,23.2
2018-06-19T20:25:13.165Z,23.2
2018-06-19T20:30:08.744Z,23.1
2018-06-19T20:35:05.728Z,23.1
2018-06-19T20:40:02.831Z,23.1
2018-06-19T20:45:00.125Z,23
2018-06-19T20:49:57.275Z,23
2018-06-19T20:54:54.607Z,22.9
2018-06-19T20:59:51.684Z,22.8
2018-06-19T21:04:48.964Z,22.2
2018-06-19T21:09:46.035Z,22.7
2018-06-19T21:14:42.810Z,22.7
2018-06-19T21:19:40.333Z,22.1
2018-06-19T21:24:37.564Z,22
2018-06-19T21:29:34.875Z,22
2018-06-19T21:34:31.807Z,22.5
2018-06-19T21:39:29.246Z,21.9
2018-06-19T21:44:26.487Z,21.9
2018-06-19T21:49:23.701Z,21.8
2018-06-19T21:54:21.010Z,22.3
2018-06-19T21:59:18.564Z,21.7
2018-06-19T22:04:15.934Z,21.6
2018-06-19T22:09:12.910Z,22.1
2018-06-19T22:14:10.321Z,22.1
2018-06-19T22:19:07.417Z,22.1
2018-06-19T22:24:04.616Z,22.1
2018-06-19T22:29:01.597Z,22
2018-06-19T22:33:58.956Z,22
2018-06-19T22:38:56.336Z,21.4
2018-06-19T22:43:53.778Z,21.3
2018-06-19T22:48:50.948Z,21.8
2018-06-19T22:53:48.479Z,20.8
2018-06-19T22:58:45.125Z,21.8
2018-06-19T23:03:42.332Z,21.7
2018-06-19T23:08:39.669Z,21.7
2018-06-19T23:13:36.648Z,21.6
2018-06-19T23:18:34.075Z,21.1
2018-06-19T23:23:31.690Z,21
2018-06-19T23:28:28.763Z,21.5
2018-06-19T23:33:25.924Z,21.4
2018-06-19T23:38:22.614Z,21.4
2018-06-19T23:43:19.941Z,21.4
2018-06-19T23:48:17.245Z,21.3
2018-06-19T23:53:14.695Z,21.3
2018-06-19T23:58:12.143Z,21.2
